sensor_id;sensor_type;location;lat;lon;timestamp;pressure;altitude;pressure_sealevel;temperature;humidity
73073;BME280;61260;51.090;-1.786;2022-09-09T00:01:31;99651.52;;;15.39;92.08
73073;BME280;61260;51.090;-1.786;2022-09-09T00:04:11;99648.08;;;15.40;92.11
73073;BME280;61260;51.090;-1.786;2022-09-09T00:06:49;99646.58;;;15.41;92.07
73073;BME280;61260;51.090;-1.786;2022-09-09T00:09:26;99644.30;;;15.40;92.12
73073;BME280;61260;51.090;-1.786;2022-09-09T00:12:00;99644.69;;;15.40;92.12
73073;BME280;61260;51.090;-1.786;2022-09-09T00:14:37;99644.00;;;15.39;92.05
73073;BME280;61260;51.090;-1.786;2022-09-09T00:17:12;99643.98;;;15.39;92.00
73073;BME280;61260;51.090;-1.786;2022-09-09T00:19:47;99645.48;;;15.38;91.97
73073;BME280;61260;51.090;-1.786;2022-09-09T00:22:22;99646.50;;;15.38;92.05
73073;BME280;61260;51.090;-1.786;2022-09-09T00:24:55;99650.14;;;15.37;92.02
73073;BME280;61260;51.090;-1.786;2022-09-09T00:27:29;99650.93;;;15.35;92.01
73073;BME280;61260;51.090;-1.786;2022-09-09T00:30:12;99649.37;;;15.32;91.95
73073;BME280;61260;51.090;-1.786;2022-09-09T00:32:43;99646.91;;;15.31;91.94
73073;BME280;61260;51.090;-1.786;2022-09-09T00:35:18;99643.30;;;15.31;92.06
73073;BME280;61260;51.090;-1.786;2022-09-09T00:37:53;99646.13;;;15.31;92.18
73073;BME280;61260;51.090;-1.786;2022-09-09T00:40:31;99643.63;;;15.31;92.10
73073;BME280;61260;51.090;-1.786;2022-09-09T00:43:14;99640.94;;;15.31;92.02
73073;BME280;61260;51.090;-1.786;2022-09-09T00:49:03;99646.91;;;15.22;91.97
73073;BME280;61260;51.090;-1.786;2022-09-09T00:51:43;99647.95;;;15.18;91.98
73073;BME280;61260;51.090;-1.786;2022-09-09T00:54:30;99650.63;;;15.14;92.03
73073;BME280;61260;51.090;-1.786;2022-09-09T00:57:25;99654.16;;;15.11;92.12
73073;BME280;61260;51.090;-1.786;2022-09-09T01:00:14;99662.73;;;15.11;92.24
73073;BME280;61260;51.090;-1.786;2022-09-09T01:02:52;99669.09;;;15.12;92.34
73073;BME280;61260;51.090;-1.786;2022-09-09T01:05:33;99669.08;;;15.13;92.32
73073;BME280;61260;51.090;-1.786;2022-09-09T01:08:08;99671.05;;;15.14;92.38
73073;BME280;61260;51.090;-1.786;2022-09-09T01:10:43;99665.80;;;15.15;92.45
73073;BME280;61260;51.090;-1.786;2022-09-09T01:13:16;99662.58;;;15.15;92.35
73073;BME280;61260;51.090;-1.786;2022-09-09T01:15:49;99671.22;;;15.14;92.31
73073;BME280;61260;51.090;-1.786;2022-09-09T01:18:23;99670.12;;;15.16;92.46
73073;BME280;61260;51.090;-1.786;2022-09-09T01:21:01;99670.02;;;15.19;92.41
73073;BME280;61260;51.090;-1.786;2022-09-09T01:23:44;99675.52;;;15.20;92.39
73073;BME280;61260;51.090;-1.786;2022-09-09T01:26:27;99683.78;;;15.22;92.42
73073;BME280;61260;51.090;-1.786;2022-09-09T01:28:57;99690.67;;;15.25;92.48
73073;BME280;61260;51.090;-1.786;2022-09-09T01:31:31;99687.46;;;15.27;92.50
73073;BME280;61260;51.090;-1.786;2022-09-09T01:34:02;99687.92;;;15.28;92.42
73073;BME280;61260;51.090;-1.786;2022-09-09T01:36:38;99689.99;;;15.29;92.30
73073;BME280;61260;51.090;-1.786;2022-09-09T01:39:08;99691.17;;;15.30;92.26
73073;BME280;61260;51.090;-1.786;2022-09-09T01:41:39;99690.08;;;15.31;92.25
73073;BME280;61260;51.090;-1.786;2022-09-09T01:44:09;99692.98;;;15.32;92.22
73073;BME280;61260;51.090;-1.786;2022-09-09T01:46:39;99691.89;;;15.32;92.30
73073;BME280;61260;51.090;-1.786;2022-09-09T01:49:09;99693.61;;;15.32;92.35
73073;BME280;61260;51.090;-1.786;2022-09-09T01:51:41;99697.55;;;15.33;92.40
73073;BME280;61260;51.090;-1.786;2022-09-09T01:54:12;99702.73;;;15.33;92.30
73073;BME280;61260;51.090;-1.786;2022-09-09T01:56:56;99706.75;;;15.33;92.30
73073;BME280;61260;51.090;-1.786;2022-09-09T01:59:42;99704.39;;;15.34;92.33
73073;BME280;61260;51.090;-1.786;2022-09-09T02:02:17;99705.25;;;15.34;92.31
73073;BME280;61260;51.090;-1.786;2022-09-09T02:04:49;99709.79;;;15.31;92.15
73073;BME280;61260;51.090;-1.786;2022-09-09T02:07:34;99713.86;;;15.27;92.20
73073;BME280;61260;51.090;-1.786;2022-09-09T02:10:12;99715.98;;;15.25;92.18
73073;BME280;61260;51.090;-1.786;2022-09-09T02:12:48;99722.28;;;15.23;92.34
73073;BME280;61260;51.090;-1.786;2022-09-09T02:15:25;99719.54;;;15.24;92.32
73073;BME280;61260;51.090;-1.786;2022-09-09T02:17:59;99725.66;;;15.25;92.42
73073;BME280;61260;51.090;-1.786;2022-09-09T02:20:32;99724.23;;;15.27;92.40
73073;BME280;61260;51.090;-1.786;2022-09-09T02:23:02;99725.59;;;15.29;92.24
73073;BME280;61260;51.090;-1.786;2022-09-09T02:25:35;99724.80;;;15.30;92.23
73073;BME280;61260;51.090;-1.786;2022-09-09T02:28:08;99723.40;;;15.29;91.95
73073;BME280;61260;51.090;-1.786;2022-09-09T02:30:40;99725.50;;;15.27;91.81
73073;BME280;61260;51.090;-1.786;2022-09-09T02:33:12;99726.45;;;15.23;91.79
73073;BME280;61260;51.090;-1.786;2022-09-09T02:35:44;99727.63;;;15.16;91.60
73073;BME280;61260;51.090;-1.786;2022-09-09T02:38:16;99727.56;;;15.08;91.59
73073;BME280;61260;51.090;-1.786;2022-09-09T02:40:45;99732.44;;;14.99;91.59
73073;BME280;61260;51.090;-1.786;2022-09-09T02:43:16;99733.30;;;14.91;91.84
73073;BME280;61260;51.090;-1.786;2022-09-09T02:45:53;99737.94;;;14.86;91.93
73073;BME280;61260;51.090;-1.786;2022-09-09T02:48:32;99744.94;;;14.83;92.13
73073;BME280;61260;51.090;-1.786;2022-09-09T02:51:10;99748.54;;;14.84;92.25
73073;BME280;61260;51.090;-1.786;2022-09-09T02:53:50;99748.61;;;14.85;92.36
73073;BME280;61260;51.090;-1.786;2022-09-09T02:56:27;99749.16;;;14.87;92.32
73073;BME280;61260;51.090;-1.786;2022-09-09T02:59:02;99743.67;;;14.87;92.24
73073;BME280;61260;51.090;-1.786;2022-09-09T03:01:32;99746.33;;;14.87;92.08
73073;BME280;61260;51.090;-1.786;2022-09-09T03:04:03;99751.38;;;14.85;91.96
73073;BME280;61260;51.090;-1.786;2022-09-09T03:06:34;99755.14;;;14.81;91.96
73073;BME280;61260;51.090;-1.786;2022-09-09T03:09:04;99754.27;;;14.80;91.99
73073;BME280;61260;51.090;-1.786;2022-09-09T03:11:33;99758.17;;;14.79;92.05
73073;BME280;61260;51.090;-1.786;2022-09-09T03:14:04;99757.02;;;14.80;92.24
73073;BME280;61260;51.090;-1.786;2022-09-09T03:16:34;99758.13;;;14.80;92.03
73073;BME280;61260;51.090;-1.786;2022-09-09T03:19:04;99756.94;;;14.80;92.17
73073;BME280;61260;51.090;-1.786;2022-09-09T03:21:34;99756.38;;;14.77;92.15
73073;BME280;61260;51.090;-1.786;2022-09-09T03:24:04;99760.70;;;14.76;92.00
73073;BME280;61260;51.090;-1.786;2022-09-09T03:26:34;99761.48;;;14.72;91.98
73073;BME280;61260;51.090;-1.786;2022-09-09T03:29:05;99761.80;;;14.69;91.90
73073;BME280;61260;51.090;-1.786;2022-09-09T03:31:35;99761.40;;;14.65;91.83
73073;BME280;61260;51.090;-1.786;2022-09-09T03:34:06;99763.26;;;14.61;91.91
73073;BME280;61260;51.090;-1.786;2022-09-09T03:36:36;99765.92;;;14.59;92.09
73073;BME280;61260;51.090;-1.786;2022-09-09T03:39:05;99766.02;;;14.57;92.12
73073;BME280;61260;51.090;-1.786;2022-09-09T03:41:35;99768.99;;;14.55;92.04
73073;BME280;61260;51.090;-1.786;2022-09-09T03:44:05;99771.34;;;14.53;92.12
73073;BME280;61260;51.090;-1.786;2022-09-09T03:46:35;99781.55;;;14.51;92.09
73073;BME280;61260;51.090;-1.786;2022-09-09T03:49:04;99784.84;;;14.51;92.26
73073;BME280;61260;51.090;-1.786;2022-09-09T03:51:34;99790.26;;;14.50;92.11
73073;BME280;61260;51.090;-1.786;2022-09-09T03:54:05;99789.15;;;14.47;92.22
73073;BME280;61260;51.090;-1.786;2022-09-09T03:56:36;99790.17;;;14.46;92.27
73073;BME280;61260;51.090;-1.786;2022-09-09T03:59:07;99798.10;;;14.47;92.45
73073;BME280;61260;51.090;-1.786;2022-09-09T04:01:37;99795.83;;;14.47;92.40
73073;BME280;61260;51.090;-1.786;2022-09-09T04:04:07;99797.16;;;14.48;92.32
73073;BME280;61260;51.090;-1.786;2022-09-09T04:06:37;99795.44;;;14.49;92.28
73073;BME280;61260;51.090;-1.786;2022-09-09T04:09:06;99791.03;;;14.50;92.32
73073;BME280;61260;51.090;-1.786;2022-09-09T04:11:36;99792.15;;;14.52;92.37
73073;BME280;61260;51.090;-1.786;2022-09-09T04:14:07;99795.05;;;14.54;92.28
73073;BME280;61260;51.090;-1.786;2022-09-09T04:16:37;99798.04;;;14.55;92.16
73073;BME280;61260;51.090;-1.786;2022-09-09T04:19:06;99802.90;;;14.54;92.21
73073;BME280;61260;51.090;-1.786;2022-09-09T04:21:36;99806.35;;;14.55;92.12
73073;BME280;61260;51.090;-1.786;2022-09-09T04:24:08;99806.20;;;14.55;92.15
73073;BME280;61260;51.090;-1.786;2022-09-09T04:26:38;99803.52;;;14.54;92.12
73073;BME280;61260;51.090;-1.786;2022-09-09T04:29:07;99797.34;;;14.54;92.16
73073;BME280;61260;51.090;-1.786;2022-09-09T04:31:37;99796.79;;;14.54;92.06
73073;BME280;61260;51.090;-1.786;2022-09-09T04:34:10;99797.09;;;14.54;92.16
73073;BME280;61260;51.090;-1.786;2022-09-09T04:36:39;99806.75;;;14.53;92.21
73073;BME280;61260;51.090;-1.786;2022-09-09T04:39:09;99808.48;;;14.51;92.04
73073;BME280;61260;51.090;-1.786;2022-09-09T04:41:39;99810.35;;;14.51;92.16
73073;BME280;61260;51.090;-1.786;2022-09-09T04:44:08;99812.55;;;14.51;92.25
73073;BME280;61260;51.090;-1.786;2022-09-09T04:46:38;99813.58;;;14.53;92.43
73073;BME280;61260;51.090;-1.786;2022-09-09T04:49:09;99812.79;;;14.54;92.22
73073;BME280;61260;51.090;-1.786;2022-09-09T04:51:39;99818.69;;;14.58;92.32
73073;BME280;61260;51.090;-1.786;2022-09-09T04:54:08;99823.04;;;14.62;92.44
73073;BME280;61260;51.090;-1.786;2022-09-09T04:56:38;99826.73;;;14.67;92.45
73073;BME280;61260;51.090;-1.786;2022-09-09T04:59:09;99832.70;;;14.71;92.30
73073;BME280;61260;51.090;-1.786;2022-09-09T05:01:39;99832.80;;;14.74;92.23
73073;BME280;61260;51.090;-1.786;2022-09-09T05:04:09;99836.02;;;14.77;92.05
73073;BME280;61260;51.090;-1.786;2022-09-09T05:06:39;99836.80;;;14.80;91.85
73073;BME280;61260;51.090;-1.786;2022-09-09T05:09:08;99842.00;;;14.84;91.80
73073;BME280;61260;51.090;-1.786;2022-09-09T05:11:38;99840.29;;;14.87;91.79
73073;BME280;61260;51.090;-1.786;2022-09-09T05:14:07;99843.66;;;14.89;91.89
73073;BME280;61260;51.090;-1.786;2022-09-09T05:16:39;99847.44;;;14.92;91.86
73073;BME280;61260;51.090;-1.786;2022-09-09T05:19:09;99854.98;;;14.94;91.75
73073;BME280;61260;51.090;-1.786;2022-09-09T05:21:38;99853.02;;;14.96;91.65
73073;BME280;61260;51.090;-1.786;2022-09-09T05:24:09;99854.04;;;14.96;91.54
73073;BME280;61260;51.090;-1.786;2022-09-09T05:26:39;99854.83;;;14.95;91.34
73073;BME280;61260;51.090;-1.786;2022-09-09T05:29:09;99857.34;;;14.94;91.29
73073;BME280;61260;51.090;-1.786;2022-09-09T05:31:38;99860.25;;;14.94;91.19
73073;BME280;61260;51.090;-1.786;2022-09-09T05:34:09;99861.49;;;14.94;91.13
73073;BME280;61260;51.090;-1.786;2022-09-09T05:36:39;99863.70;;;14.93;91.12
73073;BME280;61260;51.090;-1.786;2022-09-09T05:39:09;99865.35;;;14.92;91.09
73073;BME280;61260;51.090;-1.786;2022-09-09T05:41:40;99869.90;;;14.90;91.08
73073;BME280;61260;51.090;-1.786;2022-09-09T05:44:09;99869.11;;;14.86;91.01
73073;BME280;61260;51.090;-1.786;2022-09-09T05:46:39;99872.02;;;14.83;91.00
73073;BME280;61260;51.090;-1.786;2022-09-09T05:49:09;99872.56;;;14.82;90.96
73073;BME280;61260;51.090;-1.786;2022-09-09T05:51:39;99877.04;;;14.81;90.94
73073;BME280;61260;51.090;-1.786;2022-09-09T05:54:08;99874.36;;;14.80;90.85
73073;BME280;61260;51.090;-1.786;2022-09-09T05:56:38;99874.49;;;14.78;90.72
73073;BME280;61260;51.090;-1.786;2022-09-09T05:59:07;99875.29;;;14.76;90.72
73073;BME280;61260;51.090;-1.786;2022-09-09T06:01:38;99873.30;;;14.72;90.54
73073;BME280;61260;51.090;-1.786;2022-09-09T06:04:09;99876.38;;;14.70;90.45
73073;BME280;61260;51.090;-1.786;2022-09-09T06:06:39;99877.77;;;14.66;90.31
73073;BME280;61260;51.090;-1.786;2022-09-09T06:09:10;99881.45;;;14.63;90.22
73073;BME280;61260;51.090;-1.786;2022-09-09T06:11:41;99883.62;;;14.59;90.20
73073;BME280;61260;51.090;-1.786;2022-09-09T06:14:11;99882.35;;;14.55;90.10
73073;BME280;61260;51.090;-1.786;2022-09-09T06:16:41;99890.96;;;14.51;90.15
73073;BME280;61260;51.090;-1.786;2022-09-09T06:19:12;99894.34;;;14.47;90.05
73073;BME280;61260;51.090;-1.786;2022-09-09T06:21:42;99896.52;;;14.44;90.05
73073;BME280;61260;51.090;-1.786;2022-09-09T06:24:12;99901.99;;;14.41;89.97
73073;BME280;61260;51.090;-1.786;2022-09-09T06:26:45;99908.11;;;14.39;90.00
73073;BME280;61260;51.090;-1.786;2022-09-09T06:29:15;99908.17;;;14.35;89.83
73073;BME280;61260;51.090;-1.786;2022-09-09T06:31:46;99908.63;;;14.34;89.86
73073;BME280;61260;51.090;-1.786;2022-09-09T06:34:16;99908.70;;;14.33;89.66
73073;BME280;61260;51.090;-1.786;2022-09-09T06:36:46;99913.26;;;14.34;89.67
73073;BME280;61260;51.090;-1.786;2022-09-09T06:39:16;99912.56;;;14.35;89.40
73073;BME280;61260;51.090;-1.786;2022-09-09T06:41:46;99919.83;;;14.43;89.21
73073;BME280;61260;51.090;-1.786;2022-09-09T06:44:16;99919.80;;;14.56;89.33
73073;BME280;61260;51.090;-1.786;2022-09-09T06:46:46;99924.50;;;14.68;88.83
73073;BME280;61260;51.090;-1.786;2022-09-09T06:49:16;99928.38;;;14.78;88.52
73073;BME280;61260;51.090;-1.786;2022-09-09T06:51:46;99928.66;;;14.89;87.70
73073;BME280;61260;51.090;-1.786;2022-09-09T06:54:15;99927.36;;;15.01;87.20
73073;BME280;61260;51.090;-1.786;2022-09-09T06:57:40;99931.16;;;15.12;85.96
73073;BME280;61260;51.090;-1.786;2022-09-09T07:00:12;99932.59;;;15.16;85.81
73073;BME280;61260;51.090;-1.786;2022-09-09T07:02:43;99931.81;;;15.22;86.06
73073;BME280;61260;51.090;-1.786;2022-09-09T07:05:13;99934.20;;;15.29;85.71
73073;BME280;61260;51.090;-1.786;2022-09-09T07:07:44;99933.36;;;15.36;85.87
73073;BME280;61260;51.090;-1.786;2022-09-09T07:10:15;99935.10;;;15.41;85.32
73073;BME280;61260;51.090;-1.786;2022-09-09T07:12:46;99938.24;;;15.47;85.08
73073;BME280;61260;51.090;-1.786;2022-09-09T07:15:20;99941.65;;;15.53;85.00
73073;BME280;61260;51.090;-1.786;2022-09-09T07:17:51;99945.66;;;15.57;84.29
73073;BME280;61260;51.090;-1.786;2022-09-09T07:20:22;99944.24;;;15.64;84.50
73073;BME280;61260;51.090;-1.786;2022-09-09T07:22:56;99945.73;;;15.71;84.03
73073;BME280;61260;51.090;-1.786;2022-09-09T07:25:27;99946.36;;;15.79;83.82
73073;BME280;61260;51.090;-1.786;2022-09-09T07:27:59;99947.16;;;15.86;83.68
73073;BME280;61260;51.090;-1.786;2022-09-09T07:30:29;99947.08;;;15.94;83.51
73073;BME280;61260;51.090;-1.786;2022-09-09T07:33:01;99954.23;;;16.03;83.37
73073;BME280;61260;51.090;-1.786;2022-09-09T07:35:32;99959.27;;;16.11;81.98
73073;BME280;61260;51.090;-1.786;2022-09-09T07:38:04;99964.59;;;16.24;82.52
73073;BME280;61260;51.090;-1.786;2022-09-09T07:40:35;99967.34;;;16.46;81.91
73073;BME280;61260;51.090;-1.786;2022-09-09T07:43:05;99969.55;;;16.69;80.92
73073;BME280;61260;51.090;-1.786;2022-09-09T07:45:36;99975.15;;;16.91;80.03
73073;BME280;61260;51.090;-1.786;2022-09-09T07:48:07;99977.43;;;17.08;79.24
73073;BME280;61260;51.090;-1.786;2022-09-09T07:50:37;99978.93;;;17.22;78.13
73073;BME280;61260;51.090;-1.786;2022-09-09T07:53:08;99978.37;;;17.43;76.79
73073;BME280;61260;51.090;-1.786;2022-09-09T07:55:38;99981.55;;;17.74;76.51
73073;BME280;61260;51.090;-1.786;2022-09-09T07:58:09;99979.92;;;18.28;76.07
73073;BME280;61260;51.090;-1.786;2022-09-09T08:00:39;99982.70;;;19.30;75.36
73073;BME280;61260;51.090;-1.786;2022-09-09T08:03:12;99978.93;;;20.44;70.57
73073;BME280;61260;51.090;-1.786;2022-09-09T08:05:42;99984.88;;;21.32;66.38
73073;BME280;61260;51.090;-1.786;2022-09-09T08:08:12;99990.50;;;21.61;64.71
73073;BME280;61260;51.090;-1.786;2022-09-09T08:10:46;99991.26;;;21.63;63.63
73073;BME280;61260;51.090;-1.786;2022-09-09T08:13:16;99991.50;;;22.15;62.80
73073;BME280;61260;51.090;-1.786;2022-09-09T08:15:47;99991.10;;;22.76;58.52
73073;BME280;61260;51.090;-1.786;2022-09-09T08:18:18;99997.60;;;22.77;60.13
73073;BME280;61260;51.090;-1.786;2022-09-09T08:20:49;99996.48;;;23.30;57.91
73073;BME280;61260;51.090;-1.786;2022-09-09T08:23:18;100000.02;;;23.73;53.99
73073;BME280;61260;51.090;-1.786;2022-09-09T08:25:48;100000.21;;;24.03;55.41
73073;BME280;61260;51.090;-1.786;2022-09-09T08:28:18;100004.44;;;24.54;55.02
73073;BME280;61260;51.090;-1.786;2022-09-09T08:30:48;100001.38;;;25.08;51.36
73073;BME280;61260;51.090;-1.786;2022-09-09T08:33:20;100005.49;;;25.47;52.09
73073;BME280;61260;51.090;-1.786;2022-09-09T08:35:52;100002.60;;;25.76;49.74
73073;BME280;61260;51.090;-1.786;2022-09-09T08:38:23;100003.42;;;26.02;48.28
73073;BME280;61260;51.090;-1.786;2022-09-09T08:40:56;100006.36;;;26.10;46.58
73073;BME280;61260;51.090;-1.786;2022-09-09T08:43:30;100004.21;;;26.53;46.04
73073;BME280;61260;51.090;-1.786;2022-09-09T08:46:04;100005.48;;;27.10;46.35
73073;BME280;61260;51.090;-1.786;2022-09-09T08:49:10;100008.41;;;27.64;45.14
73073;BME280;61260;51.090;-1.786;2022-09-09T08:51:47;100012.52;;;27.33;42.29
73073;BME280;61260;51.090;-1.786;2022-09-09T08:54:16;100010.83;;;27.52;44.76
73073;BME280;61260;51.090;-1.786;2022-09-09T08:56:47;100015.20;;;27.23;44.50
73073;BME280;61260;51.090;-1.786;2022-09-09T08:59:19;100020.86;;;26.15;44.94
73073;BME280;61260;51.090;-1.786;2022-09-09T09:02:02;100024.14;;;25.38;46.63
73073;BME280;61260;51.090;-1.786;2022-09-09T09:04:53;100029.52;;;25.25;46.43
73073;BME280;61260;51.090;-1.786;2022-09-09T09:07:36;100038.76;;;24.63;46.33
73073;BME280;61260;51.090;-1.786;2022-09-09T09:10:25;100048.09;;;23.57;47.84
73073;BME280;61260;51.090;-1.786;2022-09-09T09:13:01;100052.41;;;22.85;50.44
73073;BME280;61260;51.090;-1.786;2022-09-09T09:15:35;100058.98;;;22.44;52.94
73073;BME280;61260;51.090;-1.786;2022-09-09T09:18:07;100060.02;;;22.19;53.87
73073;BME280;61260;51.090;-1.786;2022-09-09T09:20:46;100063.45;;;21.87;53.55
73073;BME280;61260;51.090;-1.786;2022-09-09T09:23:24;100068.45;;;21.67;55.54
73073;BME280;61260;51.090;-1.786;2022-09-09T09:25:58;100066.63;;;21.54;55.82
73073;BME280;61260;51.090;-1.786;2022-09-09T09:28:32;100070.28;;;21.51;55.91
73073;BME280;61260;51.090;-1.786;2022-09-09T09:31:06;100071.42;;;21.45;56.36
73073;BME280;61260;51.090;-1.786;2022-09-09T09:33:41;100068.50;;;21.37;56.01
73073;BME280;61260;51.090;-1.786;2022-09-09T09:36:14;100073.84;;;21.43;55.26
73073;BME280;61260;51.090;-1.786;2022-09-09T09:38:56;100078.20;;;21.32;55.85
73073;BME280;61260;51.090;-1.786;2022-09-09T09:41:38;100083.70;;;21.35;57.42
73073;BME280;61260;51.090;-1.786;2022-09-09T09:44:24;100088.50;;;21.52;57.59
73073;BME280;61260;51.090;-1.786;2022-09-09T09:47:05;100095.81;;;21.89;57.34
73073;BME280;61260;51.090;-1.786;2022-09-09T09:49:35;100096.38;;;21.97;56.43
73073;BME280;61260;51.090;-1.786;2022-09-09T09:52:21;100100.22;;;21.70;57.43
73073;BME280;61260;51.090;-1.786;2022-09-09T09:54:52;100108.17;;;21.53;59.55
73073;BME280;61260;51.090;-1.786;2022-09-09T09:57:28;100104.13;;;21.38;59.36
73073;BME280;61260;51.090;-1.786;2022-09-09T10:00:15;100109.66;;;21.19;60.26
73073;BME280;61260;51.090;-1.786;2022-09-09T10:02:47;100112.63;;;21.01;60.63
73073;BME280;61260;51.090;-1.786;2022-09-09T10:05:21;100115.05;;;20.90;61.02
73073;BME280;61260;51.090;-1.786;2022-09-09T10:08:04;100117.36;;;20.89;62.09
73073;BME280;61260;51.090;-1.786;2022-09-09T10:10:42;100118.15;;;20.89;61.73
73073;BME280;61260;51.090;-1.786;2022-09-09T10:13:18;100120.06;;;20.78;61.71
73073;BME280;61260;51.090;-1.786;2022-09-09T10:15:59;100124.80;;;20.70;62.01
73073;BME280;61260;51.090;-1.786;2022-09-09T10:18:49;100130.45;;;20.54;60.59
73073;BME280;61260;51.090;-1.786;2022-09-09T10:21:39;100135.66;;;20.42;61.35
73073;BME280;61260;51.090;-1.786;2022-09-09T10:24:32;100137.17;;;20.37;62.39
73073;BME280;61260;51.090;-1.786;2022-09-09T10:27:10;100138.02;;;20.34;62.26
73073;BME280;61260;51.090;-1.786;2022-09-09T10:29:56;100140.48;;;20.33;63.46
73073;BME280;61260;51.090;-1.786;2022-09-09T10:32:38;100140.27;;;20.31;63.33
73073;BME280;61260;51.090;-1.786;2022-09-09T10:35:21;100144.23;;;20.26;64.10
73073;BME280;61260;51.090;-1.786;2022-09-09T10:38:16;100143.56;;;20.13;64.40
73073;BME280;61260;51.090;-1.786;2022-09-09T10:41:13;100148.67;;;20.04;65.54
73073;BME280;61260;51.090;-1.786;2022-09-09T10:46:52;100150.68;;;20.40;66.28
73073;BME280;61260;51.090;-1.786;2022-09-09T10:49:44;100150.21;;;20.82;66.13
73073;BME280;61260;51.090;-1.786;2022-09-09T10:52:27;100150.67;;;21.64;66.59
73073;BME280;61260;51.090;-1.786;2022-09-09T10:55:06;100151.73;;;22.15;63.70
73073;BME280;61260;51.090;-1.786;2022-09-09T10:57:42;100152.85;;;22.21;61.32
73073;BME280;61260;51.090;-1.786;2022-09-09T11:00:19;100153.61;;;22.09;61.01
73073;BME280;61260;51.090;-1.786;2022-09-09T11:02:55;100156.91;;;21.85;59.93
73073;BME280;61260;51.090;-1.786;2022-09-09T11:05:30;100155.22;;;21.55;60.09
73073;BME280;61260;51.090;-1.786;2022-09-09T11:08:04;100160.00;;;21.30;60.19
73073;BME280;61260;51.090;-1.786;2022-09-09T11:10:40;100161.38;;;21.07;60.75
73073;BME280;61260;51.090;-1.786;2022-09-09T11:13:18;100163.98;;;20.84;60.76
73073;BME280;61260;51.090;-1.786;2022-09-09T11:15:52;100169.05;;;20.65;61.83
73073;BME280;61260;51.090;-1.786;2022-09-09T11:18:24;100170.42;;;20.53;62.28
73073;BME280;61260;51.090;-1.786;2022-09-09T11:20:58;100176.04;;;20.55;63.34
73073;BME280;61260;51.090;-1.786;2022-09-09T11:23:38;100176.14;;;20.73;63.57
73073;BME280;61260;51.090;-1.786;2022-09-09T11:26:14;100172.59;;;20.96;63.17
73073;BME280;61260;51.090;-1.786;2022-09-09T11:28:54;100176.88;;;21.43;64.01
73073;BME280;61260;51.090;-1.786;2022-09-09T11:31:42;100175.77;;;21.98;64.39
73073;BME280;61260;51.090;-1.786;2022-09-09T11:34:25;100176.90;;;22.41;62.54
73073;BME280;61260;51.090;-1.786;2022-09-09T11:37:16;100173.69;;;22.69;61.91
73073;BME280;61260;51.090;-1.786;2022-09-09T11:39:55;100172.09;;;22.95;60.86
73073;BME280;61260;51.090;-1.786;2022-09-09T11:42:31;100170.35;;;23.14;60.10
73073;BME280;61260;51.090;-1.786;2022-09-09T11:45:10;100172.41;;;22.97;57.69
73073;BME280;61260;51.090;-1.786;2022-09-09T11:47:50;100172.23;;;22.73;59.23
73073;BME280;61260;51.090;-1.786;2022-09-09T11:50:32;100168.63;;;22.48;58.98
73073;BME280;61260;51.090;-1.786;2022-09-09T11:53:20;100176.64;;;22.24;57.78
73073;BME280;61260;51.090;-1.786;2022-09-09T11:56:11;100176.77;;;21.89;58.37
73073;BME280;61260;51.090;-1.786;2022-09-09T11:58:55;100183.64;;;21.55;59.28
73073;BME280;61260;51.090;-1.786;2022-09-09T12:01:36;100185.36;;;21.23;59.49
73073;BME280;61260;51.090;-1.786;2022-09-09T12:04:21;100187.66;;;21.01;60.40
73073;BME280;61260;51.090;-1.786;2022-09-09T12:06:59;100185.05;;;20.91;61.74
73073;BME280;61260;51.090;-1.786;2022-09-09T12:09:46;100189.83;;;20.95;63.26
73073;BME280;61260;51.090;-1.786;2022-09-09T12:12:32;100189.27;;;20.95;62.80
73073;BME280;61260;51.090;-1.786;2022-09-09T12:15:18;100193.85;;;21.01;63.31
73073;BME280;61260;51.090;-1.786;2022-09-09T12:17:51;100193.27;;;21.17;63.15
73073;BME280;61260;51.090;-1.786;2022-09-09T12:20:25;100196.09;;;21.39;63.36
73073;BME280;61260;51.090;-1.786;2022-09-09T12:23:18;100198.89;;;21.68;63.29
73073;BME280;61260;51.090;-1.786;2022-09-09T12:26:07;100197.54;;;21.99;63.16
73073;BME280;61260;51.090;-1.786;2022-09-09T12:28:49;100198.00;;;22.18;61.64
73073;BME280;61260;51.090;-1.786;2022-09-09T12:31:27;100203.77;;;22.35;60.48
73073;BME280;61260;51.090;-1.786;2022-09-09T12:34:11;100199.77;;;22.56;60.65
73073;BME280;61260;51.090;-1.786;2022-09-09T12:36:44;100203.77;;;22.52;59.99
73073;BME280;61260;51.090;-1.786;2022-09-09T12:39:22;100205.98;;;22.46;58.85
73073;BME280;61260;51.090;-1.786;2022-09-09T12:41:57;100203.10;;;22.70;56.99
73073;BME280;61260;51.090;-1.786;2022-09-09T12:44:27;100206.69;;;23.18;56.59
73073;BME280;61260;51.090;-1.786;2022-09-09T12:46:59;100197.13;;;23.76;56.07
73073;BME280;61260;51.090;-1.786;2022-09-09T12:49:32;100192.14;;;24.62;55.21
73073;BME280;61260;51.090;-1.786;2022-09-09T12:52:08;100190.36;;;25.08;53.39
73073;BME280;61260;51.090;-1.786;2022-09-09T12:54:45;100199.00;;;24.93;52.61
73073;BME280;61260;51.090;-1.786;2022-09-09T12:57:17;100195.23;;;24.62;51.44
73073;BME280;61260;51.090;-1.786;2022-09-09T12:59:47;100195.30;;;24.22;52.07
73073;BME280;61260;51.090;-1.786;2022-09-09T13:02:27;100196.24;;;23.79;51.84
73073;BME280;61260;51.090;-1.786;2022-09-09T13:05:08;100191.46;;;23.42;53.81
73073;BME280;61260;51.090;-1.786;2022-09-09T13:07:44;100193.55;;;23.42;55.46
73073;BME280;61260;51.090;-1.786;2022-09-09T13:10:15;100196.91;;;23.52;55.59
73073;BME280;61260;51.090;-1.786;2022-09-09T13:12:50;100200.16;;;23.96;54.48
73073;BME280;61260;51.090;-1.786;2022-09-09T13:15:26;100204.89;;;23.90;55.24
73073;BME280;61260;51.090;-1.786;2022-09-09T13:18:00;100202.73;;;24.11;54.59
73073;BME280;61260;51.090;-1.786;2022-09-09T13:20:31;100199.63;;;23.75;54.71
73073;BME280;61260;51.090;-1.786;2022-09-09T13:23:02;100208.55;;;23.23;55.95
73073;BME280;61260;51.090;-1.786;2022-09-09T13:25:32;100211.29;;;22.74;57.15
73073;BME280;61260;51.090;-1.786;2022-09-09T13:28:04;100209.88;;;22.59;58.24
73073;BME280;61260;51.090;-1.786;2022-09-09T13:30:36;100209.63;;;22.53;58.40